sensor_id;sensor_type;location;lat;lon;timestamp;pressure;altitude;pressure_sealevel;temperature;humidity
47742;BME280;33504;52.066;6.096;2023-09-19T00:00:57;100602.45;;;17.36;51.42
47742;BME280;33504;52.066;6.096;2023-09-19T00:03:24;100601.85;;;17.61;51.38
47742;BME280;33504;52.066;6.096;2023-09-19T00:05:51;100610.05;;;17.16;51.51
47742;BME280;33504;52.066;6.096;2023-09-19T00:08:17;100612.81;;;17.16;51.42
47742;BME280;33504;52.066;6.096;2023-09-19T00:10:44;100611.05;;;17.09;51.46
47742;BME280;33504;52.066;6.096;2023-09-19T00:13:11;100615.49;;;17.20;51.45
47742;BME280;33504;52.066;6.096;2023-09-19T00:15:40;100616.83;;;17.22;51.17
47742;BME280;33504;52.066;6.096;2023-09-19T00:18:08;100623.50;;;17.08;50.89
47742;BME280;33504;52.066;6.096;2023-09-19T00:20:36;100624.60;;;17.58;50.73
47742;BME280;33504;52.066;6.096;2023-09-19T00:23:03;100624.04;;;17.24;50.74
47742;BME280;33504;52.066;6.096;2023-09-19T00:25:31;100629.31;;;17.28;50.76
47742;BME280;33504;52.066;6.096;2023-09-19T00:27:58;100628.46;;;16.97;51.10
47742;BME280;33504;52.066;6.096;2023-09-19T00:30:24;100633.62;;;16.96;50.98
47742;BME280;33504;52.066;6.096;2023-09-19T00:32:52;100635.22;;;17.32;50.87
47742;BME280;33504;52.066;6.096;2023-09-19T00:35:19;100641.23;;;17.09;51.38
47742;BME280;33504;52.066;6.096;2023-09-19T00:37:47;100639.77;;;16.58;51.25
47742;BME280;33504;52.066;6.096;2023-09-19T00:40:13;100648.66;;;17.10;51.23
47742;BME280;33504;52.066;6.096;2023-09-19T00:42:41;100646.05;;;16.60;51.25
47742;BME280;33504;52.066;6.096;2023-09-19T00:45:10;100648.22;;;17.27;51.26
47742;BME280;33504;52.066;6.096;2023-09-19T00:47:38;100644.60;;;17.21;51.43
47742;BME280;33504;52.066;6.096;2023-09-19T00:50:07;100646.87;;;17.12;51.42
47742;BME280;33504;52.066;6.096;2023-09-19T00:52:34;100649.57;;;16.93;51.82
47742;BME280;33504;52.066;6.096;2023-09-19T00:55:02;100648.95;;;16.74;51.44
47742;BME280;33504;52.066;6.096;2023-09-19T00:57:29;100651.16;;;16.90;51.56
47742;BME280;33504;52.066;6.096;2023-09-19T00:59:57;100655.21;;;17.10;51.60
47742;BME280;33504;52.066;6.096;2023-09-19T01:02:24;100657.03;;;16.91;51.84
47742;BME280;33504;52.066;6.096;2023-09-19T01:04:51;100658.97;;;17.11;51.72
47742;BME280;33504;52.066;6.096;2023-09-19T01:07:18;100665.39;;;16.75;52.60
47742;BME280;33504;52.066;6.096;2023-09-19T01:09:45;100662.48;;;17.04;52.09
47742;BME280;33504;52.066;6.096;2023-09-19T01:12:16;100666.56;;;16.78;52.15
47742;BME280;33504;52.066;6.096;2023-09-19T01:14:55;100664.42;;;16.97;52.18
47742;BME280;33504;52.066;6.096;2023-09-19T01:17:27;100664.75;;;17.11;52.46
47742;BME280;33504;52.066;6.096;2023-09-19T01:20:10;100665.62;;;17.07;52.20
47742;BME280;33504;52.066;6.096;2023-09-19T01:22:46;100669.55;;;17.13;52.11
47742;BME280;33504;52.066;6.096;2023-09-19T01:27:26;100671.71;;;17.99;52.74
47742;BME280;33504;52.066;6.096;2023-09-19T01:30:08;100674.83;;;16.84;53.34
47742;BME280;33504;52.066;6.096;2023-09-19T01:32:36;100673.09;;;16.49;53.64
47742;BME280;33504;52.066;6.096;2023-09-19T01:35:03;100671.39;;;16.90;52.76
47742;BME280;33504;52.066;6.096;2023-09-19T01:37:31;100672.03;;;16.53;52.94
47742;BME280;33504;52.066;6.096;2023-09-19T01:40:00;100674.99;;;16.83;52.81
47742;BME280;33504;52.066;6.096;2023-09-19T01:42:37;100673.96;;;16.69;52.68
47742;BME280;33504;52.066;6.096;2023-09-19T01:45:12;100679.18;;;16.93;53.02
47742;BME280;33504;52.066;6.096;2023-09-19T01:47:48;100682.14;;;16.80;52.89
47742;BME280;33504;52.066;6.096;2023-09-19T01:50:21;100684.65;;;16.55;52.77
47742;BME280;33504;52.066;6.096;2023-09-19T01:52:59;100680.46;;;16.94;52.56
47742;BME280;33504;52.066;6.096;2023-09-19T01:55:29;100687.62;;;16.71;52.82
47742;BME280;33504;52.066;6.096;2023-09-19T01:58:05;100687.88;;;16.73;52.95
47742;BME280;33504;52.066;6.096;2023-09-19T02:00:36;100686.22;;;16.58;52.78
47742;BME280;33504;52.066;6.096;2023-09-19T02:03:04;100682.14;;;16.60;52.55
47742;BME280;33504;52.066;6.096;2023-09-19T02:05:32;100686.10;;;16.66;52.61
47742;BME280;33504;52.066;6.096;2023-09-19T02:07:59;100698.30;;;16.78;52.54
47742;BME280;33504;52.066;6.096;2023-09-19T02:10:26;100697.52;;;16.20;52.76
47742;BME280;33504;52.066;6.096;2023-09-19T02:12:54;100701.55;;;16.28;52.90
47742;BME280;33504;52.066;6.096;2023-09-19T02:15:21;100696.57;;;16.25;52.43
47742;BME280;33504;52.066;6.096;2023-09-19T02:17:48;100697.24;;;16.21;52.80
47742;BME280;33504;52.066;6.096;2023-09-19T02:20:14;100696.59;;;16.36;52.57
47742;BME280;33504;52.066;6.096;2023-09-19T02:22:42;100701.41;;;16.45;52.19
47742;BME280;33504;52.066;6.096;2023-09-19T02:25:09;100700.04;;;16.58;51.90
47742;BME280;33504;52.066;6.096;2023-09-19T02:27:37;100701.93;;;15.96;52.27
47742;BME280;33504;52.066;6.096;2023-09-19T02:30:05;100703.03;;;15.85;52.57
47742;BME280;33504;52.066;6.096;2023-09-19T02:32:32;100707.05;;;15.70;52.48
47742;BME280;33504;52.066;6.096;2023-09-19T02:34:59;100702.05;;;16.34;51.68
47742;BME280;33504;52.066;6.096;2023-09-19T02:37:26;100697.95;;;15.84;52.30
47742;BME280;33504;52.066;6.096;2023-09-19T02:39:53;100696.35;;;15.95;52.09
47742;BME280;33504;52.066;6.096;2023-09-19T02:42:20;100698.23;;;15.65;51.93
47742;BME280;33504;52.066;6.096;2023-09-19T02:44:47;100703.40;;;15.87;51.65
47742;BME280;33504;52.066;6.096;2023-09-19T02:47:13;100705.43;;;16.18;51.16
47742;BME280;33504;52.066;6.096;2023-09-19T02:49:40;100711.15;;;16.09;50.93
47742;BME280;33504;52.066;6.096;2023-09-19T02:52:07;100713.03;;;15.98;51.04
47742;BME280;33504;52.066;6.096;2023-09-19T02:54:34;100712.44;;;15.89;50.62
47742;BME280;33504;52.066;6.096;2023-09-19T02:57:00;100714.94;;;15.85;50.65
47742;BME280;33504;52.066;6.096;2023-09-19T02:59:27;100705.29;;;15.69;50.71
47742;BME280;33504;52.066;6.096;2023-09-19T03:01:54;100710.38;;;15.63;50.88
47742;BME280;33504;52.066;6.096;2023-09-19T03:04:21;100715.85;;;15.93;50.74
47742;BME280;33504;52.066;6.096;2023-09-19T03:06:47;100717.30;;;15.65;50.74
47742;BME280;33504;52.066;6.096;2023-09-19T03:09:14;100717.36;;;15.74;50.20
47742;BME280;33504;52.066;6.096;2023-09-19T03:11:42;100722.67;;;15.90;49.80
47742;BME280;33504;52.066;6.096;2023-09-19T03:14:09;100722.57;;;15.59;50.07
47742;BME280;33504;52.066;6.096;2023-09-19T03:16:36;100723.72;;;15.76;49.92
47742;BME280;33504;52.066;6.096;2023-09-19T03:19:02;100728.17;;;15.82;49.86
47742;BME280;33504;52.066;6.096;2023-09-19T03:21:29;100721.55;;;15.53;49.85
47742;BME280;33504;52.066;6.096;2023-09-19T03:23:56;100719.83;;;15.55;49.83
47742;BME280;33504;52.066;6.096;2023-09-19T03:26:23;100720.54;;;15.17;50.19
47742;BME280;33504;52.066;6.096;2023-09-19T03:28:50;100714.06;;;15.50;49.70
47742;BME280;33504;52.066;6.096;2023-09-19T03:31:17;100711.49;;;15.42;50.29
47742;BME280;33504;52.066;6.096;2023-09-19T03:33:44;100714.68;;;15.28;50.34
47742;BME280;33504;52.066;6.096;2023-09-19T03:36:11;100709.55;;;15.66;49.87
47742;BME280;33504;52.066;6.096;2023-09-19T03:38:37;100709.56;;;15.46;49.65
47742;BME280;33504;52.066;6.096;2023-09-19T03:41:04;100711.18;;;15.59;49.48
47742;BME280;33504;52.066;6.096;2023-09-19T03:43:32;100716.96;;;15.73;49.19
47742;BME280;33504;52.066;6.096;2023-09-19T03:46:01;100720.61;;;15.02;49.77
47742;BME280;33504;52.066;6.096;2023-09-19T03:48:28;100716.84;;;15.56;49.64
47742;BME280;33504;52.066;6.096;2023-09-19T03:50:56;100714.86;;;15.45;49.27
47742;BME280;33504;52.066;6.096;2023-09-19T03:53:22;100718.15;;;15.27;48.67
47742;BME280;33504;52.066;6.096;2023-09-19T03:55:49;100722.18;;;15.16;49.54
47742;BME280;33504;52.066;6.096;2023-09-19T03:58:16;100719.02;;;15.27;49.17
47742;BME280;33504;52.066;6.096;2023-09-19T04:00:43;100723.98;;;15.05;49.09
47742;BME280;33504;52.066;6.096;2023-09-19T04:03:09;100720.60;;;15.08;49.07
47742;BME280;33504;52.066;6.096;2023-09-19T04:05:36;100718.40;;;15.19;49.00
47742;BME280;33504;52.066;6.096;2023-09-19T04:08:04;100712.63;;;15.01;49.46
47742;BME280;33504;52.066;6.096;2023-09-19T04:10:31;100713.08;;;14.90;48.79
47742;BME280;33504;52.066;6.096;2023-09-19T04:12:57;100714.67;;;14.94;48.85
47742;BME280;33504;52.066;6.096;2023-09-19T04:15:24;100722.13;;;15.02;48.55
47742;BME280;33504;52.066;6.096;2023-09-19T04:17:51;100727.92;;;14.99;48.93
47742;BME280;33504;52.066;6.096;2023-09-19T04:20:18;100733.14;;;15.32;48.33
47742;BME280;33504;52.066;6.096;2023-09-19T04:22:45;100737.73;;;15.19;48.83
47742;BME280;33504;52.066;6.096;2023-09-19T04:25:13;100739.44;;;14.96;47.97
47742;BME280;33504;52.066;6.096;2023-09-19T04:27:40;100745.43;;;15.48;47.37
47742;BME280;33504;52.066;6.096;2023-09-19T04:30:08;100755.31;;;15.08;47.91
47742;BME280;33504;52.066;6.096;2023-09-19T04:32:35;100762.21;;;14.95;47.95
47742;BME280;33504;52.066;6.096;2023-09-19T04:35:01;100764.68;;;14.66;48.28
47742;BME280;33504;52.066;6.096;2023-09-19T04:37:28;100765.09;;;15.12;47.92
47742;BME280;33504;52.066;6.096;2023-09-19T04:39:55;100770.28;;;15.29;47.41
47742;BME280;33504;52.066;6.096;2023-09-19T04:42:21;100780.43;;;15.19;47.63
47742;BME280;33504;52.066;6.096;2023-09-19T04:44:48;100779.48;;;15.06;47.91
47742;BME280;33504;52.066;6.096;2023-09-19T04:47:15;100779.18;;;14.83;48.01
47742;BME280;33504;52.066;6.096;2023-09-19T04:49:41;100778.18;;;15.00;47.24
47742;BME280;33504;52.066;6.096;2023-09-19T04:52:08;100783.44;;;15.07;47.49
47742;BME280;33504;52.066;6.096;2023-09-19T04:54:36;100789.17;;;14.97;47.31
47742;BME280;33504;52.066;6.096;2023-09-19T04:57:03;100793.69;;;14.94;47.64
47742;BME280;33504;52.066;6.096;2023-09-19T04:59:30;100795.11;;;15.15;47.38
47742;BME280;33504;52.066;6.096;2023-09-19T05:01:57;100800.24;;;14.96;47.58
47742;BME280;33504;52.066;6.096;2023-09-19T05:04:25;100796.72;;;14.83;47.57
47742;BME280;33504;52.066;6.096;2023-09-19T05:06:52;100796.10;;;14.95;47.42
47742;BME280;33504;52.066;6.096;2023-09-19T05:09:19;100799.48;;;15.01;47.30
47742;BME280;33504;52.066;6.096;2023-09-19T05:11:45;100799.12;;;14.84;47.18
47742;BME280;33504;52.066;6.096;2023-09-19T05:14:12;100785.64;;;14.85;47.63
47742;BME280;33504;52.066;6.096;2023-09-19T05:16:39;100780.75;;;14.94;47.61
47742;BME280;33504;52.066;6.096;2023-09-19T05:19:06;100787.12;;;14.37;48.45
47742;BME280;33504;52.066;6.096;2023-09-19T05:21:33;100778.78;;;14.45;48.37
47742;BME280;33504;52.066;6.096;2023-09-19T05:23:59;100796.15;;;14.80;47.93
47742;BME280;33504;52.066;6.096;2023-09-19T05:26:26;100787.59;;;14.95;47.89
47742;BME280;33504;52.066;6.096;2023-09-19T05:28:53;100790.37;;;14.97;48.14
47742;BME280;33504;52.066;6.096;2023-09-19T05:31:20;100795.89;;;15.01;48.12
47742;BME280;33504;52.066;6.096;2023-09-19T05:33:47;100791.71;;;14.76;48.04
47742;BME280;33504;52.066;6.096;2023-09-19T05:36:13;100787.27;;;14.29;49.08
47742;BME280;33504;52.066;6.096;2023-09-19T05:38:40;100797.10;;;14.99;48.39
47742;BME280;33504;52.066;6.096;2023-09-19T05:41:07;100796.21;;;14.75;48.25
47742;BME280;33504;52.066;6.096;2023-09-19T05:43:34;100793.43;;;15.39;47.40
47742;BME280;33504;52.066;6.096;2023-09-19T05:46:01;100796.64;;;15.32;47.56
47742;BME280;33504;52.066;6.096;2023-09-19T05:48:28;100803.65;;;15.34;47.53
47742;BME280;33504;52.066;6.096;2023-09-19T05:50:54;100803.41;;;14.94;48.37
47742;BME280;33504;52.066;6.096;2023-09-19T05:53:21;100799.16;;;14.97;47.84
47742;BME280;33504;52.066;6.096;2023-09-19T05:55:48;100798.00;;;15.36;47.89
47742;BME280;33504;52.066;6.096;2023-09-19T05:58:14;100789.86;;;15.53;47.39
47742;BME280;33504;52.066;6.096;2023-09-19T06:00:41;100789.03;;;15.40;47.69
47742;BME280;33504;52.066;6.096;2023-09-19T06:03:08;100795.24;;;15.53;47.71
47742;BME280;33504;52.066;6.096;2023-09-19T06:05:34;100800.55;;;15.05;48.65
47742;BME280;33504;52.066;6.096;2023-09-19T06:08:01;100798.63;;;14.91;48.65
47742;BME280;33504;52.066;6.096;2023-09-19T06:10:28;100809.23;;;15.31;48.37
47742;BME280;33504;52.066;6.096;2023-09-19T06:12:55;100809.75;;;15.45;48.12
47742;BME280;33504;52.066;6.096;2023-09-19T06:15:22;100813.50;;;15.12;48.70
47742;BME280;33504;52.066;6.096;2023-09-19T06:17:50;100816.58;;;15.62;48.19
47742;BME280;33504;52.066;6.096;2023-09-19T06:20:17;100819.31;;;15.45;48.48
47742;BME280;33504;52.066;6.096;2023-09-19T06:22:45;100819.61;;;15.53;48.32
47742;BME280;33504;52.066;6.096;2023-09-19T06:25:13;100820.89;;;15.45;48.13
47742;BME280;33504;52.066;6.096;2023-09-19T06:27:40;100816.42;;;15.31;48.39
47742;BME280;33504;52.066;6.096;2023-09-19T06:30:08;100818.05;;;15.65;47.80
47742;BME280;33504;52.066;6.096;2023-09-19T06:32:36;100821.34;;;15.46;48.26
47742;BME280;33504;52.066;6.096;2023-09-19T06:35:03;100826.38;;;15.72;48.59
47742;BME280;33504;52.066;6.096;2023-09-19T06:37:30;100837.71;;;15.06;49.74
47742;BME280;33504;52.066;6.096;2023-09-19T06:39:57;100830.85;;;15.44;48.54
47742;BME280;33504;52.066;6.096;2023-09-19T06:42:24;100839.36;;;15.70;48.48
47742;BME280;33504;52.066;6.096;2023-09-19T06:44:50;100844.49;;;15.44;48.95
47742;BME280;33504;52.066;6.096;2023-09-19T06:47:18;100845.73;;;15.97;48.16
47742;BME280;33504;52.066;6.096;2023-09-19T06:49:45;100844.08;;;15.98;48.19
47742;BME280;33504;52.066;6.096;2023-09-19T06:52:11;100836.92;;;16.23;48.10
47742;BME280;33504;52.066;6.096;2023-09-19T06:54:39;100841.64;;;15.88;48.07
47742;BME280;33504;52.066;6.096;2023-09-19T06:57:06;100840.43;;;16.18;48.12
47742;BME280;33504;52.066;6.096;2023-09-19T06:59:32;100831.86;;;16.46;47.81
47742;BME280;33504;52.066;6.096;2023-09-19T07:01:59;100834.39;;;16.11;48.16
47742;BME280;33504;52.066;6.096;2023-09-19T07:04:26;100826.51;;;15.71;49.06
47742;BME280;33504;52.066;6.096;2023-09-19T07:06:52;100818.15;;;15.46;49.36
47742;BME280;33504;52.066;6.096;2023-09-19T07:09:19;100824.42;;;15.50;49.72
47742;BME280;33504;52.066;6.096;2023-09-19T07:11:46;100831.99;;;15.97;48.81
47742;BME280;33504;52.066;6.096;2023-09-19T07:14:13;100829.85;;;16.13;48.78
47742;BME280;33504;52.066;6.096;2023-09-19T07:16:40;100829.68;;;16.47;48.47
47742;BME280;33504;52.066;6.096;2023-09-19T07:19:06;100829.99;;;16.63;48.21
47742;BME280;33504;52.066;6.096;2023-09-19T07:21:33;100835.61;;;15.96;48.76
47742;BME280;33504;52.066;6.096;2023-09-19T07:24:00;100834.66;;;16.80;48.14
47742;BME280;33504;52.066;6.096;2023-09-19T07:26:27;100830.00;;;16.65;48.31
47742;BME280;33504;52.066;6.096;2023-09-19T07:28:54;100834.40;;;16.45;48.42
47742;BME280;33504;52.066;6.096;2023-09-19T07:31:21;100840.03;;;15.98;49.62
47742;BME280;33504;52.066;6.096;2023-09-19T07:33:48;100839.32;;;16.15;49.42
47742;BME280;33504;52.066;6.096;2023-09-19T07:36:16;100842.55;;;16.19;48.92
47742;BME280;33504;52.066;6.096;2023-09-19T07:38:42;100836.62;;;16.55;48.67
47742;BME280;33504;52.066;6.096;2023-09-19T07:41:09;100841.25;;;16.18;48.99
47742;BME280;33504;52.066;6.096;2023-09-19T07:43:36;100837.00;;;16.45;48.87
47742;BME280;33504;52.066;6.096;2023-09-19T07:46:04;100838.07;;;16.97;48.31
47742;BME280;33504;52.066;6.096;2023-09-19T07:48:31;100834.57;;;17.14;48.08
47742;BME280;33504;52.066;6.096;2023-09-19T07:51:02;100842.58;;;16.87;47.26
47742;BME280;33504;52.066;6.096;2023-09-19T07:53:29;100847.60;;;16.78;48.26
47742;BME280;33504;52.066;6.096;2023-09-19T07:56:02;100844.21;;;17.49;47.35
47742;BME280;33504;52.066;6.096;2023-09-19T07:58:29;100845.21;;;17.70;46.75
47742;BME280;33504;52.066;6.096;2023-09-19T08:00:56;100849.80;;;17.38;46.88
47742;BME280;33504;52.066;6.096;2023-09-19T08:03:23;100850.38;;;18.10;45.86
47742;BME280;33504;52.066;6.096;2023-09-19T08:05:51;100849.91;;;18.41;45.21
47742;BME280;33504;52.066;6.096;2023-09-19T08:08:18;100854.48;;;18.23;45.18
47742;BME280;33504;52.066;6.096;2023-09-19T08:10:46;100855.13;;;18.19;45.02
47742;BME280;33504;52.066;6.096;2023-09-19T08:13:18;100847.84;;;17.94;45.09
47742;BME280;33504;52.066;6.096;2023-09-19T08:15:46;100843.27;;;18.41;44.72
47742;BME280;33504;52.066;6.096;2023-09-19T08:18:13;100851.95;;;18.10;44.92
47742;BME280;33504;52.066;6.096;2023-09-19T08:20:41;100844.31;;;18.47;44.65
47742;BME280;33504;52.066;6.096;2023-09-19T08:23:08;100850.26;;;18.68;44.50
47742;BME280;33504;52.066;6.096;2023-09-19T08:25:35;100851.74;;;17.83;44.92
47742;BME280;33504;52.066;6.096;2023-09-19T08:28:02;100848.45;;;18.68;44.74
47742;BME280;33504;52.066;6.096;2023-09-19T08:30:29;100857.63;;;18.72;44.21
47742;BME280;33504;52.066;6.096;2023-09-19T08:32:57;100847.84;;;18.64;44.16
47742;BME280;33504;52.066;6.096;2023-09-19T08:35:24;100854.25;;;18.96;43.56
47742;BME280;33504;52.066;6.096;2023-09-19T08:37:51;100852.48;;;19.31;43.71
47742;BME280;33504;52.066;6.096;2023-09-19T08:40:18;100854.04;;;19.22;43.52
47742;BME280;33504;52.066;6.096;2023-09-19T08:42:49;100856.90;;;19.43;43.22
47742;BME280;33504;52.066;6.096;2023-09-19T08:45:17;100852.92;;;19.20;44.13
47742;BME280;33504;52.066;6.096;2023-09-19T08:47:53;100859.33;;;19.45;43.27
47742;BME280;33504;52.066;6.096;2023-09-19T08:50:27;100851.12;;;19.20;44.35
47742;BME280;33504;52.066;6.096;2023-09-19T08:52:56;100857.03;;;18.82;44.68
47742;BME280;33504;52.066;6.096;2023-09-19T08:55:27;100845.54;;;17.91;44.93
47742;BME280;33504;52.066;6.096;2023-09-19T08:58:00;100848.99;;;19.03;44.63
47742;BME280;33504;52.066;6.096;2023-09-19T09:00:28;100853.61;;;18.90;44.60
47742;BME280;33504;52.066;6.096;2023-09-19T09:02:56;100850.87;;;19.10;43.82
47742;BME280;33504;52.066;6.096;2023-09-19T09:05:24;100848.86;;;18.58;44.77
47742;BME280;33504;52.066;6.096;2023-09-19T09:07:51;100850.60;;;18.60;43.97
47742;BME280;33504;52.066;6.096;2023-09-19T09:10:18;100859.33;;;19.18;44.40
47742;BME280;33504;52.066;6.096;2023-09-19T09:12:46;100854.56;;;19.25;44.19
47742;BME280;33504;52.066;6.096;2023-09-19T09:15:13;100847.80;;;18.67;43.95
47742;BME280;33504;52.066;6.096;2023-09-19T09:17:40;100843.04;;;18.82;43.49
47742;BME280;33504;52.066;6.096;2023-09-19T09:20:08;100845.53;;;19.28;43.04
47742;BME280;33504;52.066;6.096;2023-09-19T09:22:35;100833.48;;;19.58;43.09
47742;BME280;33504;52.066;6.096;2023-09-19T09:25:02;100836.58;;;20.17;42.46
47742;BME280;33504;52.066;6.096;2023-09-19T09:27:30;100833.98;;;20.16;42.08
47742;BME280;33504;52.066;6.096;2023-09-19T09:29:57;100832.03;;;20.90;40.83
47742;BME280;33504;52.066;6.096;2023-09-19T09:32:25;100837.58;;;20.52;40.53
47742;BME280;33504;52.066;6.096;2023-09-19T09:34:54;100836.95;;;20.62;39.71
47742;BME280;33504;52.066;6.096;2023-09-19T09:37:22;100848.26;;;20.78;39.43
47742;BME280;33504;52.066;6.096;2023-09-19T09:39:50;100838.59;;;21.29;38.96
47742;BME280;33504;52.066;6.096;2023-09-19T09:42:29;100835.60;;;21.04;37.65
47742;BME280;33504;52.066;6.096;2023-09-19T09:45:13;100826.23;;;21.55;38.38
47742;BME280;33504;52.066;6.096;2023-09-19T09:47:48;100823.90;;;22.48;37.37
47742;BME280;33504;52.066;6.096;2023-09-19T09:50:23;100804.85;;;22.72;37.18
47742;BME280;33504;52.066;6.096;2023-09-19T09:52:51;100807.79;;;22.82;36.41
47742;BME280;33504;52.066;6.096;2023-09-19T09:55:18;100812.47;;;22.78;35.61
47742;BME280;33504;52.066;6.096;2023-09-19T09:57:45;100817.23;;;23.14;35.24
47742;BME280;33504;52.066;6.096;2023-09-19T10:00:13;100820.19;;;22.62;35.67
47742;BME280;33504;52.066;6.096;2023-09-19T10:02:40;100822.28;;;23.07;35.26
47742;BME280;33504;52.066;6.096;2023-09-19T10:05:12;100825.94;;;23.20;34.87
47742;BME280;33504;52.066;6.096;2023-09-19T10:07:40;100832.89;;;23.15;34.67
47742;BME280;33504;52.066;6.096;2023-09-19T10:10:08;100821.85;;;23.56;34.34
47742;BME280;33504;52.066;6.096;2023-09-19T10:12:38;100828.39;;;23.55;35.12
47742;BME280;33504;52.066;6.096;2023-09-19T10:15:11;100819.54;;;22.60;34.42
47742;BME280;33504;52.066;6.096;2023-09-19T10:17:42;100822.80;;;23.09;35.28
47742;BME280;33504;52.066;6.096;2023-09-19T10:20:12;100816.97;;;21.79;35.43
47742;BME280;33504;52.066;6.096;2023-09-19T10:22:40;100820.13;;;21.58;36.78
47742;BME280;33504;52.066;6.096;2023-09-19T10:25:07;100811.62;;;22.16;36.89
47742;BME280;33504;52.066;6.096;2023-09-19T10:27:35;100814.48;;;22.18;36.71
47742;BME280;33504;52.066;6.096;2023-09-19T10:30:06;100808.29;;;22.24;35.92
47742;BME280;33504;52.066;6.096;2023-09-19T10:32:35;100806.25;;;23.11;35.58
47742;BME280;33504;52.066;6.096;2023-09-19T10:35:05;100805.97;;;23.59;35.42
47742;BME280;33504;52.066;6.096;2023-09-19T10:37:34;100821.53;;;22.82;34.95
47742;BME280;33504;52.066;6.096;2023-09-19T10:40:04;100810.59;;;22.62;34.86
47742;BME280;33504;52.066;6.096;2023-09-19T10:42:33;100814.20;;;22.70;35.60
47742;BME280;33504;52.066;6.096;2023-09-19T10:45:06;100817.65;;;22.44;35.34
47742;BME280;33504;52.066;6.096;2023-09-19T10:47:34;100817.96;;;22.23;36.61
47742;BME280;33504;52.066;6.096;2023-09-19T10:50:02;100818.61;;;22.77;36.04
47742;BME280;33504;52.066;6.096;2023-09-19T10:52:29;100817.90;;;21.83;36.49
47742;BME280;33504;52.066;6.096;2023-09-19T10:54:57;100814.96;;;21.26;37.57
47742;BME280;33504;52.066;6.096;2023-09-19T10:57:25;100806.59;;;21.80;38.07
47742;BME280;33504;52.066;6.096;2023-09-19T11:00:09;100806.19;;;22.05;36.92
47742;BME280;33504;52.066;6.096;2023-09-19T11:02:36;100800.68;;;22.05;38.10
47742;BME280;33504;52.066;6.096;2023-09-19T11:05:12;100807.39;;;21.55;37.58
47742;BME280;33504;52.066;6.096;2023-09-19T11:07:57;100801.29;;;21.37;37.77
47742;BME280;33504;52.066;6.096;2023-09-19T11:10:55;100790.93;;;21.01;38.23
47742;BME280;33504;52.066;6.096;2023-09-19T11:13:24;100787.14;;;21.13;38.32
47742;BME280;33504;52.066;6.096;2023-09-19T11:16:06;100789.10;;;21.27;38.97
47742;BME280;33504;52.066;6.096;2023-09-19T11:19:06;100784.79;;;21.50;38.82
47742;BME280;33504;52.066;6.096;2023-09-19T11:21:51;100769.21;;;20.65;39.33
47742;BME280;33504;52.066;6.096;2023-09-19T11:24:34;100762.06;;;20.45;40.07
47742;BME280;33504;52.066;6.096;2023-09-19T11:27:16;100744.05;;;20.37;39.74
47742;BME280;33504;52.066;6.096;2023-09-19T11:29:44;100753.62;;;20.28;40.15
47742;BME280;33504;52.066;6.096;2023-09-19T11:32:11;100759.11;;;20.53;40.74
47742;BME280;33504;52.066;6.096;2023-09-19T11:34:44;100760.51;;;20.77;39.63
47742;BME280;33504;52.066;6.096;2023-09-19T11:38:01;100765.39;;;21.08;39.77
47742;BME280;33504;52.066;6.096;2023-09-19T11:40:28;100761.09;;;19.71;40.63
47742;BME280;33504;52.066;6.096;2023-09-19T11:42:55;100762.23;;;20.75;39.67
47742;BME280;33504;52.066;6.096;2023-09-19T11:46:10;100758.99;;;20.36;40.68
47742;BME280;33504;52.066;6.096;2023-09-19T11:48:39;100773.93;;;20.19;40.31
47742;BME280;33504;52.066;6.096;2023-09-19T11:51:15;100771.68;;;19.69;41.08
47742;BME280;33504;52.066;6.096;2023-09-19T11:53:43;100759.92;;;19.86;40.46
47742;BME280;33504;52.066;6.096;2023-09-19T11:56:11;100754.31;;;20.54;40.02
47742;BME280;33504;52.066;6.096;2023-09-19T11:58:41;100749.65;;;20.70;39.90
47742;BME280;33504;52.066;6.096;2023-09-19T12:01:09;100740.89;;;21.16;38.65
47742;BME280;33504;52.066;6.096;2023-09-19T12:03:41;100748.04;;;20.48;38.64
47742;BME280;33504;52.066;6.096;2023-09-19T12:06:12;100748.57;;;20.47;39.33
47742;BME280;33504;52.066;6.096;2023-09-19T12:08:40;100758.72;;;20.23;39.58
47742;BME280;33504;52.066;6.096;2023-09-19T12:11:12;100751.65;;;20.08;39.41
47742;BME280;33504;52.066;6.096;2023-09-19T12:13:42;100763.01;;;20.59;38.82
47742;BME280;33504;52.066;6.096;2023-09-19T12:16:13;100746.53;;;21.03;38.78
47742;BME280;33504;52.066;6.096;2023-09-19T12:18:39;100744.56;;;20.68;38.36
47742;BME280;33504;52.066;6.096;2023-09-19T12:21:07;100733.23;;;20.81;38.19
47742;BME280;33504;52.066;6.096;2023-09-19T12:23:34;100734.69;;;20.51;38.39
47742;BME280;33504;52.066;6.096;2023-09-19T12:26:02;100740.41;;;21.15;37.72
47742;BME280;33504;52.066;6.096;2023-09-19T12:28:30;100739.77;;;20.85;38.01
47742;BME280;33504;52.066;6.096;2023-09-19T12:30:57;100740.18;;;20.83;37.77
47742;BME280;33504;52.066;6.096;2023-09-19T12:33:32;100738.09;;;21.12;37.61
47742;BME280;33504;52.066;6.096;2023-09-19T12:36:00;100741.24;;;21.62;36.96
47742;BME280;33504;52.066;6.096;2023-09-19T12:38:28;100750.97;;;21.70;37.19
47742;BME280;33504;52.066;6.096;2023-09-19T12:40:55;100753.78;;;22.15;36.72
47742;BME280;33504;52.066;6.096;2023-09-19T12:43:23;100745.26;;;21.51;37.29
47742;BME280;33504;52.066;6.096;2023-09-19T12:45:50;100753.07;;;21.48;37.23
47742;BME280;33504;52.066;6.096;2023-09-19T12:48:20;100743.58;;;21.75;36.91
47742;BME280;33504;52.066;6.096;2023-09-19T12:51:04;100749.16;;;21.41;37.07
47742;BME280;33504;52.066;6.096;2023-09-19T12:53:32;100743.47;;;20.83;37.81
47742;BME280;33504;52.066;6.096;2023-09-19T12:56:00;100748.03;;;21.11;37.55
47742;BME280;33504;52.066;6.096;2023-09-19T12:58:26;100742.90;;;21.01;37.66
47742;BME280;33504;52.066;6.096;2023-09-19T13:00:55;100738.19;;;20.88;37.86